Aberdeen, Maryland
Current Conditions -  °F | °C
As of 12:42 AM on Tuesday 27 Jan 2015 (Local Time) from KMTN Reporting Station
Broken Clouds Broken Clouds  
Wind Chill: 20°   Ceiling: 2200
Heat Index: 28°   Visibility: 10mi
Dew Point: 25°   Wind: 8mph
Humidity: 86%   Direction: 310°NW
Pressure: 29.75"   Gusts: NA
Location:  39.51°N, 76.16°W
Report Text: KMTN 270542Z AUTO 31007KT 10SM BKN022 M02/M04 A2975 RMK AO2
Loading
Personal Weather Stations






























Interactive Weather Map New forecast layout! Learn more

10-Day Weather Forecast

Advertisements
Track Severe Weather on mobile